Skip Navigation LinksHome page > Weather > Current weather Skip Navigation Links

Current Weather

Ronald Reagan Washington National, Washington

For information only: do not use for flight planning or navigation.
Latest weather
Observation time Thursday, July 24, 2014 4:17 AM EDT
Local time Thursday, July 24, 2014 4:25 AM EDT
Flight conditions Visual Meteorological Conditions
Winds
Wind direction North (360°)
Wind speed 7 mph
Visibility 10 mi.
Present weather light rain
Sky condition
Ceiling 6,000 ft. broken clouds
Cloud layer broken clouds 6,000 ft.
Cloud layer broken clouds 9,000 ft.
Cloud layer overcast 13,000 ft.
Temperature 77°F
Dewpoint 70°F
Altimeter 29.87 in.Hg
Precipitation
Rain began 3:54 AM
Precipitation last hour trace
Derived measurements
Relative humidity 79%
Heat index 77°F
Density altitude 1552 ft.
Remarks
Special weather observation.
Automated weather observing station with precipitation discriminator.
METAR SPECI KDCA 240817Z 36006KT 10SM -RA BKN060 BKN090 OVC130 25/21 A2987 RMK AO2 RAB0754 P0000

Settings

Location code

InnerDrive.Weather 4.0.5294.0 Release CLR 4.0.30319.34014
Copyright ©2014 Inner Drive Technology. All rights reserved. Portions Copyright ©1986-2014 David Braverman.

Find weather

Site navigation


Skip Navigation Links

Place info

Page info

PayPal - The safer, easier way to pay online!

Return home.

Copyright ©2014 Inner Drive Technology. Purveyors of fine, hand-crafted computer software. Page printed 2014-07-24T08:25:50 UTC.